Angola, Louisiana
Current Conditions -  °F | °C
As of 4:55 AM on Friday 19 Dec 2014 (Local Time) from KHZR Reporting Station
Thunderstorm Thunderstorm  
Wind Chill: 12°   Ceiling: 2800
Heat Index: 12°   Visibility: 1.7mi
Dew Point: 12°   Wind: 8mph
Humidity: 97%   Direction: 310°NW
Pressure: 30.12"   Gusts: NA
Location:  30.95°N, 91.57°W
Report Text: KHZR 191055Z AUTO 31007KT 1 3/4SM +TSRA SCT004 SCT019 OVC028 12/12 A3012 RMK AO2 LTG DSNT ALQS P0051 T01240120
Loading
Personal Weather Stations






























Interactive Weather Map New forecast layout! Learn more

10-Day Weather Forecast

Advertisements
Track Severe Weather on mobile